Time;durP1;ratioP1;P1;durP2;ratioP2;P2;SDS_P1;SDS_P2;PMS_P1;PMS_P2;Temp;Humidity;BMP_temperature;BMP_pressure;BME280_temperature;BME280_humidity;BME280_pressure;Samples;Min_cycle;Max_cycle;Signal;HPM_P1;HPM_P2
2020/12/14 00:02:24;;;;;;;0.47;0.47;;;4.20;99.90;;;;;;5075543;28;20215;-86
2020/12/14 00:04:57;;;;;;;0.50;0.50;;;4.20;99.90;;;;;;5072004;28;20587;-86
2020/12/14 00:07:23;;;;;;;0.80;0.40;;;4.20;99.90;;;;;;5081648;28;20186;-86
2020/12/14 00:09:49;;;;;;;0.30;0.30;;;4.10;99.90;;;;;;5073194;28;20205;-86
2020/12/14 00:12:14;;;;;;;0.53;0.53;;;4.00;99.90;;;;;;5070979;28;20845;-86
2020/12/14 00:14:40;;;;;;;1.80;1.23;;;4.00;99.90;;;;;;5072474;28;20217;-86
2020/12/14 00:17:05;;;;;;;0.20;0.20;;;4.00;99.90;;;;;;5077482;28;20527;-86
2020/12/14 00:19:31;;;;;;;0.13;0.13;;;4.10;99.90;;;;;;5072445;28;20598;-86
2020/12/14 00:21:56;;;;;;;0.40;0.40;;;4.10;99.90;;;;;;5072664;28;20305;-86
2020/12/14 00:24:23;;;;;;;1.03;1.03;;;4.10;99.90;;;;;;5073340;28;20213;-86
2020/12/14 00:26:49;;;;;;;0.40;0.40;;;4.10;99.90;;;;;;5073666;28;20196;-86
2020/12/14 00:29:15;;;;;;;1.37;0.90;;;4.10;99.90;;;;;;5072873;28;20181;-86
2020/12/14 00:31:40;;;;;;;0.57;0.40;;;4.20;99.90;;;;;;5069547;28;20210;-85
2020/12/14 00:34:06;;;;;;;0.40;0.40;;;4.20;99.90;;;;;;5072179;28;20194;-85
2020/12/14 00:36:32;;;;;;;0.17;0.17;;;4.20;99.90;;;;;;5072292;28;20189;-86
2020/12/14 00:38:57;;;;;;;0.53;0.37;;;4.20;99.90;;;;;;5070740;28;20186;-86
2020/12/14 00:41:23;;;;;;;0.27;0.27;;;4.30;99.90;;;;;;5066146;28;20566;-86
2020/12/14 00:43:49;;;;;;;0.90;0.83;;;4.50;99.90;;;;;;5072262;28;20628;-86
2020/12/14 00:46:15;;;;;;;2.43;0.87;;;4.70;99.90;;;;;;5071744;28;20190;-86
2020/12/14 00:48:41;;;;;;;0.77;0.63;;;4.60;99.90;;;;;;5073573;28;20240;-86
2020/12/14 00:51:07;;;;;;;0.33;0.33;;;4.70;99.90;;;;;;5071912;28;20322;-86
2020/12/14 00:53:33;;;;;;;0.43;0.37;;;4.50;99.90;;;;;;5067994;28;20215;-86
2020/12/14 00:56:03;;;;;;;1.40;0.87;;;4.60;99.90;;;;;;5071746;28;20187;-86
2020/12/14 00:58:29;;;;;;;0.10;0.10;;;4.70;99.90;;;;;;5071334;28;20187;-86
2020/12/14 01:00:55;;;;;;;0.70;0.57;;;4.60;99.90;;;;;;5071428;28;20251;-86
2020/12/14 01:03:20;;;;;;;0.30;0.30;;;4.40;99.90;;;;;;5071964;28;20686;-86
2020/12/14 01:05:46;;;;;;;0.40;0.40;;;4.20;99.90;;;;;;5071644;28;20212;-86
2020/12/14 01:08:12;;;;;;;2.83;0.43;;;4.20;99.90;;;;;;5082600;28;20174;-85
2020/12/14 01:10:37;;;;;;;1.17;1.13;;;4.10;99.90;;;;;;5058897;28;20203;-86
2020/12/14 01:13:03;;;;;;;0.40;0.40;;;4.20;99.90;;;;;;5071126;28;20244;-86
2020/12/14 01:15:28;;;;;;;0.23;0.23;;;4.10;99.90;;;;;;5068638;28;20662;-86
2020/12/14 01:17:54;;;;;;;0.43;0.43;;;4.10;99.90;;;;;;5072874;28;20240;-85
2020/12/14 01:20:19;;;;;;;0.40;0.40;;;4.10;99.90;;;;;;5070663;28;20206;-86
2020/12/14 01:22:45;;;;;;;0.30;0.30;;;4.00;99.90;;;;;;5059080;28;20192;-86
2020/12/14 01:25:10;;;;;;;0.37;0.37;;;4.00;99.90;;;;;;5070716;28;20221;-86
2020/12/14 01:27:36;;;;;;;0.10;0.10;;;4.00;99.90;;;;;;5071286;28;20179;-86
2020/12/14 01:30:02;;;;;;;2.07;0.37;;;4.10;99.90;;;;;;5070997;28;20184;-85
2020/12/14 01:32:28;;;;;;;0.10;0.10;;;4.10;99.90;;;;;;5070848;28;20200;-86
2020/12/14 01:34:53;;;;;;;0.20;0.20;;;4.30;99.90;;;;;;5071143;28;20192;-87
2020/12/14 01:37:19;;;;;;;0.63;0.40;;;4.40;99.90;;;;;;5071260;28;20194;-86
2020/12/14 01:39:44;;;;;;;0.30;0.30;;;4.50;99.90;;;;;;5066160;28;20193;-86
2020/12/14 01:42:10;;;;;;;0.93;0.73;;;4.50;99.90;;;;;;5070844;28;20554;-86
2020/12/14 01:44:35;;;;;;;0.87;0.30;;;4.50;99.90;;;;;;5070842;28;20264;-86
2020/12/14 01:47:03;;;;;;;0.50;0.33;;;4.40;99.90;;;;;;5072134;28;20214;-86
2020/12/14 01:49:30;;;;;;;0.20;0.20;;;4.30;99.90;;;;;;5071970;28;20243;-87
2020/12/14 01:51:56;;;;;;;6.80;1.17;;;4.10;99.90;;;;;;5070866;28;20715;-86
2020/12/14 01:54:26;;;;;;;1.03;0.70;;;3.90;99.90;;;;;;5070702;28;20569;-87
2020/12/14 01:56:52;;;;;;;0.20;0.20;;;3.80;99.90;;;;;;5071097;28;20649;-86
2020/12/14 01:59:18;;;;;;;0.20;0.20;;;3.70;99.90;;;;;;5072057;28;20191;-86
2020/12/14 02:01:43;;;;;;;0.30;0.30;;;3.70;99.90;;;;;;5070449;28;20217;-86
2020/12/14 02:04:09;;;;;;;1.00;1.00;;;3.60;99.90;;;;;;5070764;28;20205;-86
2020/12/14 02:06:35;;;;;;;0.23;0.23;;;3.70;99.90;;;;;;5073021;28;20543;-85
2020/12/14 02:09:00;;;;;;;1.27;0.60;;;3.80;99.90;;;;;;5077887;28;20636;-87
2020/12/14 02:11:26;;;;;;;0.37;0.37;;;3.80;99.90;;;;;;5070719;28;20258;-86
2020/12/14 02:13:52;;;;;;;0.20;0.20;;;3.70;99.90;;;;;;5070217;28;20187;-85
2020/12/14 02:16:17;;;;;;;0.10;0.10;;;3.60;99.90;;;;;;5075038;28;20785;-86
2020/12/14 02:18:43;;;;;;;0.37;0.20;;;3.60;99.90;;;;;;5070549;28;20189;-86
2020/12/14 02:21:08;;;;;;;0.10;0.10;;;3.60;99.90;;;;;;5066847;28;20226;-86
2020/12/14 02:23:34;;;;;;;0.57;0.57;;;3.60;99.90;;;;;;5070510;28;20231;-87
2020/12/14 02:25:59;;;;;;;0.97;0.97;;;3.60;99.90;;;;;;5064784;28;20178;-86
2020/12/14 02:28:25;;;;;;;0.20;0.20;;;3.60;99.90;;;;;;5062777;28;20186;-86
2020/12/14 02:30:50;;;;;;;0.67;0.67;;;3.70;99.90;;;;;;5070134;28;20357;-86
2020/12/14 02:33:16;;;;;;;0.87;0.30;;;3.60;99.90;;;;;;5070862;28;20182;-86
2020/12/14 02:35:45;;;;;;;0.97;0.77;;;3.60;99.90;;;;;;5064187;28;20189;-86
2020/12/14 02:38:11;;;;;;;0.63;0.30;;;3.70;99.90;;;;;;5070283;28;20198;-86
2020/12/14 02:40:36;;;;;;;0.30;0.30;;;3.80;99.90;;;;;;5071068;28;20201;-86
2020/12/14 02:43:02;;;;;;;0.47;0.47;;;3.80;99.90;;;;;;5070247;28;20194;-86
2020/12/14 02:45:27;;;;;;;0.20;0.20;;;3.90;99.90;;;;;;5071484;28;20260;-86
2020/12/14 02:47:53;;;;;;;0.20;0.20;;;3.90;99.90;;;;;;5068823;28;20196;-86
2020/12/14 02:50:19;;;;;;;0.10;0.10;;;3.90;99.90;;;;;;5070654;28;20191;-87
2020/12/14 02:52:44;;;;;;;0.20;0.20;;;3.90;99.90;;;;;;5073512;28;20206;-86
2020/12/14 02:55:11;;;;;;;0.83;0.50;;;3.90;99.90;;;;;;5075042;28;20669;-85
2020/12/14 02:57:36;;;;;;;0.43;0.30;;;3.90;99.90;;;;;;5074029;28;20232;-86
2020/12/14 03:00:04;;;;;;;1.20;0.83;;;3.80;99.90;;;;;;5073318;28;20178;-86
2020/12/14 03:02:30;;;;;;;0.93;0.70;;;3.80;99.90;;;;;;5076031;28;20208;-86
2020/12/14 03:04:55;;;;;;;0.17;0.17;;;3.70;99.90;;;;;;5073260;28;20211;-86
2020/12/14 03:07:21;;;;;;;0.87;0.87;;;3.70;99.90;;;;;;5083185;28;20178;-86
2020/12/14 03:09:47;;;;;;;0.40;0.40;;;3.70;99.90;;;;;;5074542;28;20179;-86
2020/12/14 03:12:12;;;;;;;0.40;0.40;;;3.70;99.90;;;;;;5075008;28;20276;-86
2020/12/14 03:14:38;;;;;;;1.07;0.30;;;3.70;99.90;;;;;;5074048;28;20758;-85
2020/12/14 03:17:03;;;;;;;0.03;0.03;;;3.80;99.90;;;;;;5075214;28;20187;-86
2020/12/14 03:19:29;;;;;;;0.50;0.50;;;3.80;99.90;;;;;;5073152;28;20194;-86
2020/12/14 03:21:55;;;;;;;0.40;0.30;;;3.90;99.90;;;;;;5064808;28;20254;-85
2020/12/14 03:24:23;;;;;;;0.60;0.60;;;4.00;99.90;;;;;;5066031;28;20202;-84
2020/12/14 03:26:49;;;;;;;1.73;0.40;;;4.00;99.90;;;;;;5072703;28;20257;-84
2020/12/14 03:29:15;;;;;;;0.20;0.20;;;4.00;99.90;;;;;;5063852;28;20339;-84
2020/12/14 03:31:41;;;;;;;0.77;0.53;;;4.00;99.90;;;;;;5070970;28;20281;-84
2020/12/14 03:34:06;;;;;;;0.90;0.50;;;4.00;99.90;;;;;;5073692;28;20182;-85
2020/12/14 03:36:32;;;;;;;0.10;0.10;;;4.10;99.90;;;;;;5071416;28;20204;-84
2020/12/14 03:38:58;;;;;;;1.23;0.70;;;4.10;99.90;;;;;;5072979;28;20190;-84
2020/12/14 03:41:24;;;;;;;0.57;0.57;;;4.20;99.90;;;;;;5071727;28;20765;-84
2020/12/14 03:43:51;;;;;;;0.77;0.27;;;4.30;99.90;;;;;;5071944;28;20300;-84
2020/12/14 03:46:31;;;;;;;3.17;0.73;;;4.30;99.90;;;;;;5071515;28;20213;-84
2020/12/14 03:48:57;;;;;;;0.33;0.33;;;4.40;99.90;;;;;;5056954;28;20184;-85
2020/12/14 03:51:24;;;;;;;0.47;0.47;;;4.40;99.90;;;;;;5072684;28;20202;-85
2020/12/14 03:53:50;;;;;;;0.73;0.43;;;4.30;99.90;;;;;;5071891;28;20193;-84
2020/12/14 03:56:20;;;;;;;0.67;0.40;;;4.30;99.90;;;;;;5085812;28;20193;-84
2020/12/14 03:58:46;;;;;;;0.37;0.30;;;4.30;99.90;;;;;;5072418;28;20216;-85
2020/12/14 04:01:12;;;;;;;1.30;0.53;;;4.40;99.90;;;;;;5071095;28;20210;-85
2020/12/14 04:03:40;;;;;;;0.50;0.50;;;4.40;99.90;;;;;;5071344;28;20253;-84
2020/12/14 04:06:05;;;;;;;0.20;0.20;;;4.40;99.90;;;;;;5072714;28;20190;-84
2020/12/14 04:08:31;;;;;;;0.30;0.30;;;4.40;99.90;;;;;;5080689;28;20225;-84
2020/12/14 04:10:56;;;;;;;0.97;0.60;;;4.40;99.90;;;;;;5070798;28;20206;-84
2020/12/14 04:13:22;;;;;;;0.23;0.23;;;4.50;99.90;;;;;;5073448;28;20187;-84
2020/12/14 04:15:47;;;;;;;0.40;0.40;;;4.60;99.90;;;;;;5076414;28;20202;-85
2020/12/14 04:18:13;;;;;;;0.40;0.40;;;4.60;99.90;;;;;;5071793;28;20225;-84
2020/12/14 04:20:39;;;;;;;0.30;0.30;;;4.70;99.90;;;;;;5070123;28;20213;-85
2020/12/14 04:23:04;;;;;;;0.47;0.47;;;4.80;99.90;;;;;;5074516;28;20184;-84
2020/12/14 04:25:30;;;;;;;0.10;0.10;;;4.80;99.90;;;;;;5070095;28;20215;-85
2020/12/14 04:27:58;;;;;;;0.30;0.30;;;4.70;99.90;;;;;;5071262;28;20188;-85
2020/12/14 04:30:24;;;;;;;0.47;0.47;;;4.70;99.90;;;;;;5073744;28;20566;-85
2020/12/14 04:32:51;;;;;;;0.20;0.20;;;4.70;99.90;;;;;;5070523;28;20313;-85
2020/12/14 04:35:17;;;;;;;0.90;0.63;;;4.70;99.90;;;;;;5072368;28;20265;-84
2020/12/14 04:37:42;;;;;;;0.60;0.23;;;4.70;99.90;;;;;;5064513;28;20802;-85
2020/12/14 04:40:08;;;;;;;0.50;0.50;;;4.70;99.90;;;;;;5072087;28;20218;-85
2020/12/14 04:42:34;;;;;;;0.80;0.80;;;4.70;99.90;;;;;;5069581;28;20210;-84
2020/12/14 04:45:01;;;;;;;0.63;0.50;;;4.60;99.90;;;;;;5057412;28;20235;-84
2020/12/14 04:47:27;;;;;;;0.20;0.20;;;4.60;99.90;;;;;;5063686;28;20183;-84
2020/12/14 04:49:55;;;;;;;0.87;0.80;;;4.80;99.90;;;;;;5062838;28;20289;-85
2020/12/14 04:52:23;;;;;;;0.67;0.50;;;4.70;99.90;;;;;;5070734;28;20203;-84
2020/12/14 04:54:48;;;;;;;0.37;0.37;;;4.70;99.90;;;;;;5071897;28;20180;-84
2020/12/14 04:57:15;;;;;;;0.70;0.53;;;4.70;99.90;;;;;;5072354;28;20179;-84
2020/12/14 04:59:41;;;;;;;0.50;0.50;;;4.70;99.90;;;;;;5071945;28;20205;-84
2020/12/14 05:02:09;;;;;;;0.40;0.40;;;4.60;99.90;;;;;;5070281;28;20226;-85
2020/12/14 05:04:39;;;;;;;0.40;0.40;;;4.70;99.90;;;;;;5069323;28;20207;-84
2020/12/14 05:07:05;;;;;;;0.10;0.10;;;4.70;99.90;;;;;;5077901;28;20182;-84
2020/12/14 05:09:31;;;;;;;0.40;0.40;;;5.00;99.90;;;;;;5070932;28;20210;-84
2020/12/14 05:11:58;;;;;;;0.80;0.67;;;4.90;99.90;;;;;;5060349;28;20199;-85
2020/12/14 05:14:26;;;;;;;0.30;0.30;;;4.90;99.90;;;;;;5068221;28;20185;-84
2020/12/14 05:16:52;;;;;;;0.10;0.10;;;4.90;99.90;;;;;;5069987;28;20806;-84
2020/12/14 05:19:27;;;;;;;0.23;0.23;;;4.90;99.90;;;;;;5070262;28;20219;-84
2020/12/14 05:22:01;;;;;;;2.33;0.53;;;4.90;99.90;;;;;;5068240;28;20575;-85
2020/12/14 05:24:29;;;;;;;0.57;0.50;;;4.80;99.90;;;;;;5064026;28;20202;-85
2020/12/14 05:26:56;;;;;;;1.83;1.73;;;4.90;99.90;;;;;;5086002;28;20274;-84
2020/12/14 05:29:28;;;;;;;0.20;0.20;;;5.00;99.90;;;;;;5069018;28;20180;-84
2020/12/14 05:32:11;;;;;;;1.40;1.30;;;4.90;99.90;;;;;;5065956;28;20209;-84
2020/12/14 05:34:43;;;;;;;0.40;0.30;;;5.00;99.90;;;;;;5069391;28;20551;-84
2020/12/14 05:37:11;;;;;;;0.30;0.30;;;5.00;99.90;;;;;;5070761;28;20251;-85
2020/12/14 05:39:39;;;;;;;2.43;1.07;;;5.10;99.90;;;;;;5069179;28;20877;-84
2020/12/14 05:42:15;;;;;;;0.30;0.23;;;5.10;99.90;;;;;;5069572;28;20210;-84
2020/12/14 05:44:41;;;;;;;1.63;0.70;;;5.00;99.90;;;;;;5070251;28;20231;-84
2020/12/14 05:47:23;;;;;;;0.20;0.20;;;5.00;99.90;;;;;;5070279;28;20282;-85
2020/12/14 05:49:50;;;;;;;0.20;0.20;;;5.00;99.90;;;;;;5071908;28;20270;-85
2020/12/14 05:52:19;;;;;;;0.40;0.40;;;5.00;99.90;;;;;;5070995;28;20464;-85
2020/12/14 05:54:53;;;;;;;0.67;0.67;;;4.90;99.90;;;;;;5081927;28;20171;-87
2020/12/14 05:57:29;;;;;;;0.33;0.27;;;5.00;99.90;;;;;;5074398;28;20654;-85
2020/12/14 06:00:21;;;;;;;0.43;0.43;;;4.90;99.90;;;;;;5069015;28;20183;-85
2020/12/14 06:02:50;;;;;;;0.47;0.47;;;5.00;99.90;;;;;;5066195;28;20223;-85
2020/12/14 06:05:19;;;;;;;0.57;0.30;;;5.00;99.90;;;;;;5069920;28;20678;-86
2020/12/14 06:07:59;;;;;;;0.20;0.20;;;5.00;99.90;;;;;;5082022;28;20734;-86
2020/12/14 06:10:31;;;;;;;0.43;0.43;;;5.00;99.90;;;;;;5070615;28;20192;-85
2020/12/14 06:13:05;;;;;;;0.80;0.80;;;5.00;99.90;;;;;;5071223;28;20176;-86
2020/12/14 06:15:33;;;;;;;2.80;0.43;;;5.00;99.90;;;;;;5070664;28;20660;-85
2020/12/14 06:18:01;;;;;;;0.50;0.50;;;5.00;99.90;;;;;;5068648;28;20188;-85
2020/12/14 06:20:29;;;;;;;0.30;0.30;;;5.00;99.90;;;;;;5066533;28;20194;-85
2020/12/14 06:23:04;;;;;;;0.50;0.50;;;5.10;99.90;;;;;;5066711;28;20195;-85
2020/12/14 06:25:31;;;;;;;0.43;0.43;;;5.30;99.90;;;;;;5069437;28;20211;-85
2020/12/14 06:28:16;;;;;;;0.93;0.33;;;5.10;99.90;;;;;;5063135;28;20187;-85
2020/12/14 06:30:52;;;;;;;0.40;0.40;;;5.00;99.90;;;;;;5064897;28;20256;-85
2020/12/14 06:33:35;;;;;;;0.30;0.30;;;4.90;99.90;;;;;;5072756;28;20190;-85
2020/12/14 06:36:17;;;;;;;0.53;0.23;;;4.90;99.90;;;;;;5067471;28;20183;-85
2020/12/14 06:38:44;;;;;;;0.87;0.30;;;4.90;99.90;;;;;;5067735;28;20207;-85
2020/12/14 06:41:17;;;;;;;0.20;0.20;;;5.00;99.90;;;;;;5068741;28;20204;-85
2020/12/14 06:43:45;;;;;;;0.50;0.50;;;5.00;99.90;;;;;;5074144;28;20183;-84
2020/12/14 06:46:11;;;;;;;1.90;1.80;;;5.10;99.90;;;;;;5090244;28;20555;-85
2020/12/14 06:48:45;;;;;;;0.20;0.20;;;5.20;99.90;;;;;;5069802;28;20203;-85
2020/12/14 06:51:19;;;;;;;0.53;0.53;;;5.30;99.90;;;;;;5070726;28;20216;-84
2020/12/14 06:53:52;;;;;;;0.67;0.60;;;5.50;99.90;;;;;;5069818;28;20187;-85
2020/12/14 06:56:40;;;;;;;0.43;0.27;;;5.60;99.90;;;;;;5064735;28;20175;-84
2020/12/14 06:59:26;;;;;;;2.97;1.57;;;5.40;99.90;;;;;;5054471;28;20191;-85
2020/12/14 07:01:56;;;;;;;1.70;1.60;;;5.40;99.90;;;;;;5068351;28;20208;-85
2020/12/14 07:04:25;;;;;;;0.60;0.60;;;5.40;99.90;;;;;;5067037;28;20215;-85
2020/12/14 07:06:51;;;;;;;0.43;0.30;;;5.50;99.90;;;;;;5063721;28;20180;-84
2020/12/14 07:09:36;;;;;;;0.10;0.10;;;5.50;99.90;;;;;;5067517;28;20264;-84
2020/12/14 07:12:10;;;;;;;0.30;0.30;;;5.70;99.90;;;;;;5070561;28;20708;-84
2020/12/14 07:14:53;;;;;;;0.13;0.13;;;5.60;99.90;;;;;;5072480;28;20217;-86
2020/12/14 07:17:23;;;;;;;0.13;0.13;;;5.50;99.90;;;;;;5070487;28;20196;-85
2020/12/14 07:19:50;;;;;;;0.30;0.30;;;5.60;99.90;;;;;;5074130;28;20212;-85
2020/12/14 07:22:21;;;;;;;0.30;0.30;;;5.40;99.90;;;;;;5079883;28;20216;-84
2020/12/14 07:24:59;;;;;;;0.97;0.30;;;5.50;99.90;;;;;;5075682;28;20204;-84
2020/12/14 07:27:29;;;;;;;0.60;0.60;;;5.60;99.90;;;;;;5072332;28;20178;-85
2020/12/14 07:30:10;;;;;;;0.97;0.93;;;5.30;99.90;;;;;;5075060;28;20468;-85
2020/12/14 07:32:37;;;;;;;0.67;0.37;;;5.20;99.90;;;;;;5072734;28;20208;-85
2020/12/14 07:35:07;;;;;;;0.20;0.20;;;5.30;99.90;;;;;;5072578;28;20229;-85
2020/12/14 07:37:42;;;;;;;0.60;0.57;;;5.40;99.90;;;;;;5072162;28;20246;-85
2020/12/14 07:40:09;;;;;;;0.53;0.30;;;5.30;99.90;;;;;;5070044;28;20183;-85
2020/12/14 07:42:37;;;;;;;0.30;0.30;;;5.40;99.90;;;;;;5075671;28;20684;-84
2020/12/14 07:45:10;;;;;;;0.20;0.20;;;5.40;99.90;;;;;;5072450;28;20661;-87
2020/12/14 07:47:36;;;;;;;0.50;0.50;;;5.60;99.90;;;;;;5072552;28;20198;-85
2020/12/14 07:50:23;;;;;;;0.10;0.10;;;5.60;99.90;;;;;;5071286;28;20184;-85
2020/12/14 07:52:50;;;;;;;0.40;0.10;;;5.60;99.90;;;;;;5070885;28;20179;-85
2020/12/14 07:55:16;;;;;;;0.30;0.30;;;5.50;99.90;;;;;;5071457;28;20187;-84
2020/12/14 07:57:45;;;;;;;0.37;0.20;;;5.40;99.90;;;;;;5072308;28;20190;-85
2020/12/14 08:00:13;;;;;;;0.20;0.20;;;5.60;99.90;;;;;;5071518;28;20187;-84
2020/12/14 08:02:40;;;;;;;0.30;0.30;;;5.40;99.90;;;;;;5068651;28;20208;-86
2020/12/14 08:05:08;;;;;;;0.13;0.13;;;5.40;99.90;;;;;;5070827;28;20218;-84
2020/12/14 08:07:47;;;;;;;0.13;0.13;;;5.50;99.90;;;;;;5072769;28;20184;-84
2020/12/14 08:10:14;;;;;;;0.10;0.10;;;5.60;99.90;;;;;;5065333;28;20192;-85
2020/12/14 08:12:41;;;;;;;1.40;0.93;;;5.60;99.90;;;;;;5065270;28;20751;-85
2020/12/14 08:15:14;;;;;;;0.30;0.30;;;5.70;99.90;;;;;;5065535;28;20241;-85
2020/12/14 08:17:40;;;;;;;0.70;0.60;;;5.50;99.90;;;;;;5071065;28;20176;-84
2020/12/14 08:20:23;;;;;;;0.10;0.10;;;5.60;99.90;;;;;;5070677;28;20265;-84
2020/12/14 08:22:49;;;;;;;0.60;0.53;;;5.60;99.90;;;;;;5078477;28;20287;-84
2020/12/14 08:25:29;;;;;;;0.33;0.33;;;5.40;99.90;;;;;;5071901;28;20260;-84
2020/12/14 08:28:00;;;;;;;2.37;0.53;;;5.30;99.90;;;;;;5064908;28;20207;-85
2020/12/14 08:30:26;;;;;;;0.23;0.23;;;5.30;99.90;;;;;;5061102;28;20550;-84
2020/12/14 08:33:11;;;;;;;0.93;0.73;;;5.60;99.90;;;;;;5070214;28;20275;-84
2020/12/14 08:35:42;;;;;;;0.17;0.17;;;5.80;99.90;;;;;;5064803;28;20183;-84
2020/12/14 08:38:10;;;;;;;0.60;0.60;;;5.70;99.90;;;;;;5070834;28;20702;-85
2020/12/14 08:40:37;;;;;;;0.40;0.30;;;5.70;99.90;;;;;;5071486;28;20207;-85
2020/12/14 08:43:14;;;;;;;1.43;1.13;;;5.80;99.90;;;;;;5072873;28;20181;-84
2020/12/14 08:46:03;;;;;;;1.23;0.73;;;6.00;99.90;;;;;;5072040;28;20636;-84
2020/12/14 08:48:41;;;;;;;0.83;0.73;;;6.10;99.90;;;;;;5071230;28;20258;-84
2020/12/14 08:51:12;;;;;;;1.80;0.30;;;6.10;99.90;;;;;;5061600;28;20282;-85
2020/12/14 08:53:38;;;;;;;1.23;0.50;;;6.40;99.90;;;;;;5070102;28;20660;-84
2020/12/14 08:56:09;;;;;;;0.33;0.33;;;6.50;99.90;;;;;;5061739;28;20177;-86
2020/12/14 08:58:53;;;;;;;0.30;0.30;;;6.60;99.90;;;;;;5070739;28;20180;-85
2020/12/14 09:01:20;;;;;;;1.77;1.13;;;6.40;99.90;;;;;;5073303;28;20193;-84
2020/12/14 09:03:52;;;;;;;1.10;0.97;;;6.40;99.90;;;;;;5081810;28;20185;-85
2020/12/14 09:06:19;;;;;;;0.77;0.20;;;6.60;99.90;;;;;;5065576;28;20271;-85
2020/12/14 09:08:59;;;;;;;0.27;0.27;;;6.90;99.90;;;;;;5080061;28;20267;-84
2020/12/14 09:11:28;;;;;;;0.30;0.20;;;7.00;99.90;;;;;;5069933;28;20208;-85
2020/12/14 09:14:04;;;;;;;0.53;0.47;;;6.80;99.90;;;;;;5062581;28;20192;-85
2020/12/14 09:16:30;;;;;;;0.27;0.27;;;6.90;99.90;;;;;;5067660;28;20184;-84
2020/12/14 09:18:56;;;;;;;0.30;0.30;;;6.70;99.90;;;;;;5071285;28;20193;-84
2020/12/14 09:21:22;;;;;;;0.27;0.27;;;6.70;99.90;;;;;;5067816;28;20204;-84
2020/12/14 09:24:08;;;;;;;0.27;0.27;;;6.90;99.90;;;;;;5068491;28;20267;-84
2020/12/14 09:26:33;;;;;;;0.10;0.10;;;7.10;99.90;;;;;;5071119;28;20811;-84
2020/12/14 09:28:59;;;;;;;0.20;0.20;;;7.10;99.90;;;;;;5064864;28;20188;-84
2020/12/14 09:31:25;;;;;;;1.70;0.67;;;7.30;99.90;;;;;;5068457;28;20285;-84
2020/12/14 09:33:50;;;;;;;1.03;0.40;;;7.20;99.90;;;;;;5061585;28;20752;-83
2020/12/14 09:36:16;;;;;;;0.30;0.30;;;7.00;99.90;;;;;;5067748;28;20219;-85
2020/12/14 09:38:42;;;;;;;0.67;0.67;;;7.30;99.90;;;;;;5065378;28;20196;-84
2020/12/14 09:41:08;;;;;;;0.97;0.80;;;6.90;99.90;;;;;;5065070;28;20944;-83
2020/12/14 09:43:33;;;;;;;0.30;0.30;;;6.90;99.90;;;;;;5067258;28;20212;-84
2020/12/14 09:45:59;;;;;;;0.20;0.20;;;7.20;99.90;;;;;;5065985;28;20186;-85
2020/12/14 09:48:25;;;;;;;0.20;0.20;;;7.40;99.90;;;;;;5066018;28;20190;-86
2020/12/14 09:50:51;;;;;;;0.73;0.47;;;7.10;99.90;;;;;;5072960;28;20205;-84
2020/12/14 09:53:16;;;;;;;0.13;0.13;;;7.40;99.90;;;;;;5061817;28;20184;-83
2020/12/14 09:55:43;;;;;;;0.20;0.20;;;7.80;99.90;;;;;;5066385;28;20188;-84
2020/12/14 09:58:09;;;;;;;0.17;0.17;;;8.30;99.90;;;;;;5069727;28;20200;-84
2020/12/14 10:00:34;;;;;;;0.40;0.40;;;8.70;99.90;;;;;;5070945;28;20192;-84
2020/12/14 10:03:00;;;;;;;0.50;0.33;;;8.90;99.90;;;;;;5072255;28;20207;-83
2020/12/14 10:05:26;;;;;;;0.30;0.30;;;8.90;99.90;;;;;;5073997;28;20265;-84
2020/12/14 10:07:51;;;;;;;0.30;0.30;;;8.80;99.90;;;;;;5072549;28;20559;-82
2020/12/14 10:10:17;;;;;;;0.30;0.30;;;9.20;99.90;;;;;;5073751;28;20185;-83
2020/12/14 10:12:42;;;;;;;0.97;0.50;;;9.30;99.90;;;;;;5073171;28;20677;-83
2020/12/14 10:15:09;;;;;;;1.10;1.00;;;8.50;99.90;;;;;;5079217;28;20188;-83
2020/12/14 10:17:38;;;;;;;0.90;0.90;;;8.50;99.90;;;;;;5073586;28;20269;-84
2020/12/14 10:20:07;;;;;;;0.20;0.20;;;8.80;99.90;;;;;;5073167;28;20234;-83
2020/12/14 10:22:33;;;;;;;0.30;0.30;;;8.80;99.90;;;;;;5073389;28;20204;-84
2020/12/14 10:25:00;;;;;;;0.73;0.40;;;9.10;99.90;;;;;;5072359;28;20587;-84
2020/12/14 10:27:25;;;;;;;0.20;0.20;;;9.20;99.90;;;;;;5072443;28;20195;-84
2020/12/14 10:29:51;;;;;;;0.13;0.13;;;8.40;99.90;;;;;;5072803;28;20187;-84
2020/12/14 10:32:16;;;;;;;0.40;0.40;;;8.00;99.90;;;;;;5069697;28;20209;-85
2020/12/14 10:34:42;;;;;;;2.57;0.70;;;8.30;99.90;;;;;;5072607;28;20185;-83
2020/12/14 10:37:07;;;;;;;0.37;0.37;;;8.50;99.90;;;;;;5072192;28;20201;-84
2020/12/14 10:39:33;;;;;;;0.10;0.10;;;8.70;99.90;;;;;;5068504;28;20181;-86
2020/12/14 10:41:59;;;;;;;0.20;0.20;;;8.60;99.90;;;;;;5073016;28;20244;-84
2020/12/14 10:44:24;;;;;;;0.10;0.10;;;8.80;99.90;;;;;;5070506;28;20697;-84
2020/12/14 10:46:50;;;;;;;0.53;0.53;;;8.70;99.90;;;;;;5073615;28;20209;-84
2020/12/14 10:49:16;;;;;;;0.20;0.20;;;8.70;99.90;;;;;;5074447;28;20195;-85
2020/12/14 10:51:47;;;;;;;0.20;0.13;;;8.70;99.90;;;;;;5072317;28;20247;-83
2020/12/14 10:54:13;;;;;;;0.43;0.43;;;8.70;99.90;;;;;;5074185;28;20185;-84
2020/12/14 10:56:38;;;;;;;0.00;0.00;;;8.70;99.90;;;;;;5071270;28;20194;-83
2020/12/14 10:59:04;;;;;;;1.03;1.03;;;8.60;99.90;;;;;;5072460;28;20185;-83
2020/12/14 11:01:29;;;;;;;0.30;0.30;;;8.70;99.90;;;;;;5071163;28;20210;-83
2020/12/14 11:03:55;;;;;;;0.30;0.23;;;8.70;99.90;;;;;;5072877;28;20606;-84
2020/12/14 11:06:20;;;;;;;0.20;0.20;;;8.80;99.90;;;;;;5072916;28;20182;-83
2020/12/14 11:08:46;;;;;;;0.10;0.10;;;8.70;99.90;;;;;;5079255;28;20909;-83
2020/12/14 11:11:12;;;;;;;0.30;0.30;;;8.90;99.90;;;;;;5070999;28;20676;-84
2020/12/14 11:13:38;;;;;;;0.20;0.20;;;9.10;99.90;;;;;;5073541;28;20179;-83
2020/12/14 11:16:03;;;;;;;2.27;0.50;;;9.20;99.90;;;;;;5068193;28;20189;-84
2020/12/14 11:18:29;;;;;;;0.50;0.43;;;9.00;99.90;;;;;;5062835;28;20245;-85
2020/12/14 11:20:54;;;;;;;0.60;0.60;;;9.10;99.90;;;;;;5069064;28;20254;-84
2020/12/14 11:23:20;;;;;;;0.60;0.60;;;8.60;99.90;;;;;;5081181;28;20193;-84
2020/12/14 11:25:45;;;;;;;0.40;0.40;;;8.60;99.90;;;;;;5070398;28;20223;-84
2020/12/14 11:28:11;;;;;;;0.50;0.50;;;8.70;99.90;;;;;;5073334;28;20189;-85
2020/12/14 11:30:37;;;;;;;0.70;0.70;;;8.90;99.90;;;;;;5073757;28;20724;-84
2020/12/14 11:33:03;;;;;;;2.60;0.57;;;8.90;99.90;;;;;;5071779;28;20190;-86
2020/12/14 11:35:29;;;;;;;0.73;0.73;;;8.40;99.90;;;;;;5074037;28;20272;-83
2020/12/14 11:37:55;;;;;;;0.47;0.47;;;8.60;99.90;;;;;;5072743;28;20204;-84
2020/12/14 11:40:21;;;;;;;0.50;0.50;;;8.70;99.90;;;;;;5067507;28;20233;-85
2020/12/14 11:42:46;;;;;;;0.43;0.43;;;8.50;99.90;;;;;;5071410;28;20276;-84
2020/12/14 11:45:12;;;;;;;1.33;0.23;;;8.30;99.90;;;;;;5072263;28;20215;-85
2020/12/14 11:47:37;;;;;;;2.60;0.67;;;8.30;99.90;;;;;;5068435;28;20257;-83
2020/12/14 11:50:04;;;;;;;0.43;0.43;;;8.50;99.90;;;;;;5064522;28;20220;-85
2020/12/14 11:52:30;;;;;;;0.30;0.30;;;8.80;99.90;;;;;;5064583;28;20195;-85
2020/12/14 11:54:56;;;;;;;0.30;0.30;;;9.10;99.90;;;;;;5072353;28;20326;-85
2020/12/14 11:57:21;;;;;;;0.30;0.30;;;9.30;99.90;;;;;;5060648;28;20182;-84
2020/12/14 11:59:47;;;;;;;0.47;0.47;;;9.20;99.90;;;;;;5063608;28;20243;-85
2020/12/14 12:02:15;;;;;;;0.37;0.37;;;9.40;99.90;;;;;;5068969;28;20702;-85
2020/12/14 12:04:42;;;;;;;0.33;0.33;;;9.30;99.90;;;;;;5065663;28;20197;-84
2020/12/14 12:07:08;;;;;;;0.40;0.40;;;9.10;99.90;;;;;;5068406;28;20201;-84
2020/12/14 12:09:36;;;;;;;0.30;0.30;;;9.00;99.90;;;;;;5064918;28;20266;-85
2020/12/14 12:12:03;;;;;;;0.50;0.50;;;9.20;99.90;;;;;;5068989;28;20205;-84
2020/12/14 12:14:32;;;;;;;0.30;0.30;;;9.30;99.90;;;;;;5068021;28;20182;-85
2020/12/14 12:16:57;;;;;;;0.10;0.10;;;9.30;99.90;;;;;;5069309;28;20294;-85
2020/12/14 12:19:23;;;;;;;0.30;0.30;;;9.40;99.90;;;;;;5083413;28;20197;-85
2020/12/14 12:21:49;;;;;;;1.20;0.73;;;9.50;99.90;;;;;;5073365;28;20201;-85
2020/12/14 12:24:15;;;;;;;0.23;0.23;;;9.10;99.90;;;;;;5070274;28;20296;-86
2020/12/14 12:26:41;;;;;;;0.50;0.30;;;9.10;99.90;;;;;;5069727;28;20189;-85
2020/12/14 12:29:06;;;;;;;0.20;0.20;;;9.20;99.90;;;;;;5069606;28;20224;-85
2020/12/14 12:31:32;;;;;;;0.27;0.27;;;9.20;99.90;;;;;;5071951;28;20212;-85
2020/12/14 12:33:57;;;;;;;0.40;0.40;;;9.40;99.90;;;;;;5070141;28;20188;-86
2020/12/14 12:36:23;;;;;;;0.70;0.70;;;9.50;99.90;;;;;;5071163;28;20226;-85
2020/12/14 12:38:48;;;;;;;0.10;0.10;;;9.40;99.90;;;;;;5073160;28;20219;-85
2020/12/14 12:41:14;;;;;;;0.30;0.30;;;9.40;99.90;;;;;;5069290;28;20207;-85
2020/12/14 12:43:39;;;;;;;0.50;0.50;;;9.00;99.90;;;;;;5071233;28;20181;-85
2020/12/14 12:46:05;;;;;;;0.50;0.50;;;8.70;99.90;;;;;;5070134;28;20279;-85
2020/12/14 12:48:30;;;;;;;1.90;0.40;;;8.40;99.90;;;;;;5072465;28;20179;-85
2020/12/14 12:50:58;;;;;;;0.63;0.63;;;8.30;99.90;;;;;;5060250;28;20678;-84
2020/12/14 12:53:26;;;;;;;0.30;0.30;;;8.40;99.90;;;;;;5062965;28;20194;-85
2020/12/14 12:55:53;;;;;;;0.77;0.53;;;8.50;99.90;;;;;;5064836;28;20223;-86
2020/12/14 12:58:19;;;;;;;0.30;0.30;;;8.60;99.90;;;;;;5068603;28;20227;-86
2020/12/14 13:00:46;;;;;;;0.93;0.30;;;8.60;99.90;;;;;;5072520;28;20189;-85
2020/12/14 13:03:11;;;;;;;1.30;1.20;;;8.40;99.90;;;;;;5066524;28;20188;-85